AirNav   Everest Fuels
 
 615 users online  

9FA2 Lakeside Medical Center Heliport
Belle Glade, Florida, USA

GOING TO BELLE GLADE?


FAA INFORMATION EFFECTIVE 05 DECEMBER 2019

Location

FAA Identifier: 9FA2
Lat/Long: 26-43-25.4100N 080-40-19.0900W
26-43.423500N 080-40.318167W
26.7237250,-80.6719694
(estimated)
Elevation: 11 ft. / 3 m (estimated)
Variation: 06W (2015)
From city: 4 miles N of BELLE GLADE, FL
Time zone: UTC -5 (UTC -4 during Daylight Saving Time)
Zip code: 33430

Heliport Operations

Heliport use: Private use. Permission required prior to landing
Activation date: 04/2011
Control tower: no
ARTCC: MIAMI CENTER
FSS: MIAMI FLIGHT SERVICE STATION
Attendance: UNATNDD
Wind indicator: lighted
Segmented circle: no
Lights: SS-SR
Beacon: white-green-yellow (heliport)
Operates sunset to sunrise.

Nearby radio navigation aids

VOR radial/distance  VOR name  Freq  Var
PHKr164/3.7PAHOKEE VOR/DME115.4000E
PBIr278/31.5PALM BEACH VORTAC115.7003W
LBVr098/39.0LA BELLE VORTAC110.4001E

 
NDB name  Hdg/Dist  Freq  Var  ID
UNITED243/21.240505WUTX ..- - -..-

Heliport Services

Runway Information

Helipad H1

Dimensions: 54 x 54 ft. / 16 x 16 m
Surface: concrete, in good condition
Runway edge lights: PERI
Latitude: 26-43.423500N
Longitude: 080-40.318167W
Elevation: 11.0 ft.
Traffic pattern: leftleft

Heliport Ownership and Management from official FAA records

Ownership: Privately-owned
Owner: LAKESIDE MEDICAL CENTER
39200 HOOKER HIGHWAY
BELLE GLADE, FL 33430
Phone 561-996-6571
Manager: EARL MOORE
39200 HOOKER HIGHWAY
BELLE GLADE, FL 33430
Phone 561-996-6571

Additional Remarks

FOR CD CTC PALM BEACH APCH AT 561-275-1430

Instrument Procedures

There are no published instrument procedures at 9FA2.

Some nearby airports with instrument procedures:

KPHK - Palm Beach County Glades Airport (4 nm N)
2IS - Airglades Airport (20 nm W)
06FA - William P Gwinn Airport (21 nm NE)
F45 - North Palm Beach County General Aviation Airport (25 nm E)
KPBI - Palm Beach International Airport (31 nm E)
 
Loc | Ops | Rwys | IFR | FBO | Links
Com | Nav | Svcs | Stats | Notes


 
Aerial photo
No photo
 
Sectional chart

 
Airport distance calculator
Flying to Lakeside Medical Center Heliport? Find the distance to fly.

From to 9FA2

Sunrise and sunset
Times for 07-Dec-2019
 Local
(UTC-5)
 Zulu
(UTC)
Morning civil twilight06:3411:34
Sunrise06:5911:59
Sunset17:2922:29
Evening civil twilight17:5422:54

Current date and time
Zulu (UTC)  07-Dec-2019 08:40:09
Local (UTC-5)  07-Dec-2019 03:40:09
 
METAR
KF45 
25nm E 
070810Z AUTO 00000KT 3/4SM BR OVC039 12/12 A3012 RMK AO2 TSNO
KPBI 
31nm E 
070753Z 27003KT 10SM FEW250 16/14 A3011 RMK AO2 SLP195 T01610139 $
KLNA 
32nm E 
070815Z AUTO 26003KT 10SM CLR 17/16 A3011 RMK AO2 T01660155 PNO
KOBE 
34nm N 
070815Z AUTO 00000KT 7SM CLR 08/08 A3011 RMK AO2
KSUA 
37nm NE 
070815Z AUTO 28003KT 10SM CLR 15/12 A3012 RMK AO2
KBCT 
37nm SE 
070353Z 31004KT 10SM FEW050 17/15 A3017
KFXE 
41nm SE 
070753Z 00000KT 10SM CLR 16/14 A3010 RMK AO2 SLP195 T01560139
KPMP 
41nm SE 
070753Z AUTO 29003KT 7SM CLR 16/14 A3010 RMK AO2 SLP194 T01610139
KIMM 
43nm SW 
070815Z AUTO 00000KT 10SM CLR 11/10 A3012 RMK AO2
KFLL 
48nm SE 
070753Z 00000KT 10SM FEW050 SCT250 17/14 A3009 RMK AO2 SLP190 T01720139 $
TAF
KPBI 
31nm E 
070828Z 0708/0806 VRB03KT P6SM FEW250 FM071600 05008KT P6SM FEW040 FEW250
KSUA 
37nm NE 
070537Z 0706/0806 12005KT P6SM SCT030 FM071500 34006KT P6SM FEW035 SCT250 FM071800 05008KT P6SM FEW040 SCT250 FM080200 03004KT P6SM FEW030 SCT090 SCT250
NOTAMs
Click for the latest NOTAMs
NOTAMs are issued by the DoD/FAA and will open in a separate window not controlled by AirNav.

 

 
 

Would you like to see your business listed on this page?

 If your business provides an interesting product or service to pilots, flight crews, aircraft, or users of the Lakeside Medical Center Heliport, you should consider listing it here.  To start the listing process, click on the button below
 
Add a business
 

Other Pages about Lakeside Medical Center Heliport

Update a link
 
Copyright © AirNav, LLC. All rights reserved. Privacy Policy  Contact